createdAt,value
2022-08-04T00:02:04.212Z,21.87
2022-08-04T00:04:54.305Z,21.87
2022-08-04T00:07:44.349Z,21.92
2022-08-04T00:10:17.027Z,21.92
2022-08-04T00:12:48.806Z,21.74
2022-08-04T00:15:17.480Z,21.64
2022-08-04T00:18:05.950Z,21.62
2022-08-04T00:20:35.199Z,21.58
2022-08-04T00:23:06.305Z,21.55
2022-08-04T00:25:33.172Z,21.56
2022-08-04T00:28:02.775Z,21.55
2022-08-04T00:30:29.582Z,21.55
2022-08-04T00:32:57.678Z,21.51
2022-08-04T00:35:24.701Z,21.44
2022-08-04T00:37:52.327Z,21.43
2022-08-04T00:41:01.201Z,21.38
2022-08-04T00:43:32.013Z,21.35
2022-08-04T00:46:16.247Z,21.29
2022-08-04T00:49:00.612Z,21.26
2022-08-04T00:51:45.977Z,21.32
2022-08-04T00:54:33.947Z,21.03
2022-08-04T00:57:07.515Z,20.94
2022-08-04T01:00:06.042Z,21.10
2022-08-04T01:02:51.040Z,21.13
2022-08-04T01:05:40.236Z,21.05
2022-08-04T01:08:33.807Z,21.07
2022-08-04T01:11:31.052Z,21.06
2022-08-04T01:14:26.954Z,20.98
2022-08-04T01:17:03.346Z,20.98
2022-08-04T01:19:43.848Z,20.91
2022-08-04T01:22:38.316Z,20.86
2022-08-04T01:25:39.096Z,20.84
2022-08-04T01:28:30.217Z,20.83
2022-08-04T01:31:13.033Z,20.80
2022-08-04T01:34:03.493Z,20.67
2022-08-04T01:36:28.893Z,20.67
2022-08-04T01:38:55.747Z,20.63
2022-08-04T01:41:32.495Z,20.73
2022-08-04T01:44:02.949Z,20.71
2022-08-04T01:46:33.895Z,20.73
2022-08-04T01:49:02.827Z,20.66
2022-08-04T01:51:33.806Z,20.66
2022-08-04T01:54:00.433Z,20.58
2022-08-04T01:56:29.023Z,20.50
2022-08-04T01:58:58.217Z,20.50
2022-08-04T02:01:25.013Z,20.59
2022-08-04T02:04:18.125Z,20.52
2022-08-04T02:06:38.274Z,20.44
2022-08-04T02:09:22.063Z,20.37
2022-08-04T02:12:04.252Z,20.39
2022-08-04T02:14:45.287Z,20.33
2022-08-04T02:17:44.144Z,20.27
2022-08-04T02:20:25.963Z,20.03
2022-08-04T02:23:00.870Z,19.99
2022-08-04T02:25:29.877Z,20.02
2022-08-04T02:28:23.786Z,19.93
2022-08-04T02:30:57.867Z,19.94
2022-08-04T02:33:44.641Z,19.89
2022-08-04T02:36:19.266Z,19.95
2022-08-04T02:38:55.256Z,19.96
2022-08-04T02:41:23.881Z,19.97
2022-08-04T02:43:52.862Z,19.99
2022-08-04T02:46:21.791Z,20.00
2022-08-04T02:48:50.428Z,19.94
2022-08-04T02:51:22.228Z,20.01
2022-08-04T02:53:53.826Z,19.91
2022-08-04T02:56:22.300Z,19.94
2022-08-04T02:58:53.207Z,19.83
2022-08-04T03:01:22.148Z,19.88
2022-08-04T03:04:24.359Z,19.81
2022-08-04T03:07:18.821Z,19.68
2022-08-04T03:10:23.045Z,19.64
2022-08-04T03:13:02.708Z,19.62
2022-08-04T03:15:47.206Z,19.60
2022-08-04T03:18:29.015Z,19.60
2022-08-04T03:21:05.408Z,19.52
2022-08-04T03:23:57.665Z,19.44
2022-08-04T03:26:49.315Z,19.34
2022-08-04T03:29:57.554Z,19.33
2022-08-04T03:32:48.146Z,19.32
2022-08-04T03:35:53.580Z,19.33
2022-08-04T03:38:57.096Z,19.36
2022-08-04T03:41:51.930Z,19.33
2022-08-04T03:44:49.863Z,19.45
2022-08-04T03:47:22.341Z,19.40
2022-08-04T03:50:40.922Z,19.24
2022-08-04T03:53:26.344Z,19.30
2022-08-04T03:55:58.682Z,19.29
2022-08-04T03:58:43.863Z,19.32
2022-08-04T04:01:22.618Z,19.29
2022-08-04T04:03:58.259Z,19.26
2022-08-04T04:06:41.503Z,19.35
2022-08-04T04:09:56.899Z,19.40
2022-08-04T04:12:49.147Z,19.31
2022-08-04T04:15:55.700Z,19.26
2022-08-04T04:18:56.249Z,19.24
2022-08-04T04:21:39.581Z,19.22
2022-08-04T04:24:34.015Z,19.34
2022-08-04T04:27:48.670Z,19.34
2022-08-04T04:30:37.000Z,19.20
2022-08-04T04:33:21.787Z,19.22
2022-08-04T04:36:13.095Z,19.19
2022-08-04T04:39:01.612Z,19.15
2022-08-04T04:41:47.269Z,19.16
2022-08-04T04:44:19.503Z,19.15
2022-08-04T04:47:06.700Z,19.22
2022-08-04T04:49:48.383Z,19.13
2022-08-04T04:52:31.008Z,19.26
2022-08-04T04:55:18.263Z,19.20
2022-08-04T04:57:53.825Z,19.14
2022-08-04T05:00:25.277Z,19.37
2022-08-04T05:03:22.143Z,19.28
2022-08-04T05:06:08.163Z,19.26
2022-08-04T05:09:04.049Z,19.20
2022-08-04T05:11:45.532Z,19.27
2022-08-04T05:14:36.505Z,19.29
2022-08-04T05:17:28.161Z,19.34
2022-08-04T05:20:01.662Z,19.44
2022-08-04T05:22:53.116Z,19.51
2022-08-04T05:25:27.516Z,19.53
2022-08-04T05:28:00.159Z,19.54
2022-08-04T05:30:33.114Z,19.72
2022-08-04T05:33:03.744Z,19.83
2022-08-04T05:35:38.973Z,19.86
2022-08-04T05:38:27.561Z,20.07
2022-08-04T05:40:56.894Z,20.20
2022-08-04T05:43:24.342Z,20.49
2022-08-04T05:45:53.186Z,20.78
2022-08-04T05:48:20.547Z,21.13
2022-08-04T05:50:47.655Z,21.55
2022-08-04T05:53:16.030Z,21.63
2022-08-04T05:55:57.145Z,22.05
2022-08-04T05:58:28.759Z,21.92
2022-08-04T06:00:56.070Z,22.08
2022-08-04T06:03:24.098Z,22.23
2022-08-04T06:05:52.305Z,22.17
2022-08-04T06:08:19.021Z,22.28
2022-08-04T06:10:48.225Z,22.34
2022-08-04T06:13:49.325Z,22.39
2022-08-04T06:16:17.791Z,22.42
2022-08-04T06:20:00.625Z,22.61
2022-08-04T06:21:35.328Z,22.78
2022-08-04T06:24:05.103Z,23.03
2022-08-04T06:26:34.804Z,23.25
2022-08-04T06:29:02.557Z,23.46
2022-08-04T06:32:30.274Z,23.14
2022-08-04T06:34:18.847Z,23.35
2022-08-04T06:36:47.578Z,23.41
2022-08-04T06:39:14.636Z,23.42
2022-08-04T06:42:16.954Z,23.52
2022-08-04T06:44:31.086Z,23.52
2022-08-04T06:46:58.854Z,23.54
2022-08-04T06:49:26.902Z,23.67
2022-08-04T06:51:55.849Z,23.85
2022-08-04T06:54:22.492Z,24.13
2022-08-04T06:56:51.983Z,24.06
2022-08-04T06:59:20.421Z,24.11
2022-08-04T07:01:49.028Z,24.38
2022-08-04T07:04:15.954Z,24.50
2022-08-04T07:06:42.810Z,24.58
2022-08-04T07:09:10.301Z,24.66
2022-08-04T07:11:39.445Z,24.69
2022-08-04T07:14:12.513Z,24.90
2022-08-04T07:16:42.040Z,25.11
2022-08-04T07:19:10.566Z,25.12
2022-08-04T07:21:39.606Z,25.24
2022-08-04T07:24:06.623Z,25.18
2022-08-04T07:26:33.248Z,25.38
2022-08-04T07:29:00.325Z,25.72
2022-08-04T07:31:33.528Z,25.69
2022-08-04T07:34:11.524Z,25.64
2022-08-04T07:36:52.726Z,25.71
2022-08-04T07:39:27.743Z,25.53
2022-08-04T07:41:56.923Z,25.67
2022-08-04T07:44:23.793Z,25.87
2022-08-04T07:46:50.581Z,25.97
2022-08-04T07:49:55.964Z,26.10
2022-08-04T07:52:06.886Z,25.95
2022-08-04T07:54:35.270Z,26.15
2022-08-04T07:57:03.091Z,26.15
2022-08-04T07:59:29.767Z,26.57
2022-08-04T08:02:00.443Z,26.47
2022-08-04T08:04:27.494Z,26.38
2022-08-04T08:06:54.496Z,26.50
2022-08-04T08:09:21.175Z,26.99
2022-08-04T08:12:38.841Z,26.89
2022-08-04T08:14:37.062Z,27.02
2022-08-04T08:17:04.876Z,27.09
2022-08-04T08:19:33.172Z,27.00
2022-08-04T08:22:01.215Z,27.34
2022-08-04T08:24:30.137Z,27.50
2022-08-04T08:26:57.809Z,27.52
2022-08-04T08:29:26.112Z,27.38
2022-08-04T08:31:57.449Z,27.25
2022-08-04T08:34:29.341Z,27.29
2022-08-04T08:37:09.968Z,27.70
2022-08-04T08:40:10.792Z,27.91
2022-08-04T08:44:05.368Z,27.90
2022-08-04T08:46:48.118Z,28.20
2022-08-04T08:50:02.791Z,28.25
2022-08-04T08:52:57.568Z,28.31
2022-08-04T08:55:26.378Z,28.43
2022-08-04T08:58:11.769Z,28.36
2022-08-04T09:00:59.958Z,28.69
2022-08-04T09:03:29.278Z,28.45
2022-08-04T09:06:20.547Z,28.23
2022-08-04T09:09:15.032Z,28.36
2022-08-04T09:12:04.854Z,28.38
2022-08-04T09:15:04.578Z,28.39
2022-08-04T09:17:49.897Z,28.30
2022-08-04T09:20:40.154Z,28.65
2022-08-04T09:23:15.742Z,28.67
2022-08-04T09:26:01.897Z,28.36
2022-08-04T09:28:53.748Z,28.49
2022-08-04T09:31:28.387Z,28.60
2022-08-04T09:34:43.940Z,28.98
2022-08-04T09:37:45.596Z,28.67
2022-08-04T09:40:31.762Z,29.00
2022-08-04T09:43:29.402Z,29.31
2022-08-04T09:46:21.732Z,29.48
2022-08-04T09:48:53.460Z,29.86
2022-08-04T09:51:57.222Z,29.58
2022-08-04T09:55:03.345Z,30.05
2022-08-04T09:57:42.139Z,30.08
2022-08-04T10:00:12.475Z,29.84
2022-08-04T10:02:58.552Z,30.02
2022-08-04T10:05:52.564Z,29.96
2022-08-04T10:08:57.926Z,29.72
2022-08-04T10:12:03.821Z,29.31
2022-08-04T10:14:57.888Z,29.24
2022-08-04T10:17:24.586Z,29.61
2022-08-04T10:20:44.822Z,30.24
2022-08-04T10:23:31.594Z,30.00
2022-08-04T10:26:24.229Z,30.57
2022-08-04T10:29:05.909Z,30.70
2022-08-04T10:31:43.195Z,30.69
2022-08-04T10:34:21.309Z,30.35
2022-08-04T10:37:02.832Z,29.66
2022-08-04T10:39:54.748Z,30.00
2022-08-04T10:42:27.720Z,29.61
2022-08-04T10:45:05.358Z,29.76
2022-08-04T10:47:44.484Z,29.76
2022-08-04T10:50:23.877Z,29.71
2022-08-04T10:53:01.304Z,30.34
2022-08-04T10:56:06.223Z,30.50
2022-08-04T10:58:47.522Z,30.17
2022-08-04T11:02:00.688Z,30.02
2022-08-04T11:04:35.900Z,29.50
2022-08-04T11:07:03.028Z,30.06
2022-08-04T11:09:32.125Z,29.86
2022-08-04T11:12:16.908Z,30.15
2022-08-04T11:15:03.604Z,30.64
2022-08-04T11:17:43.915Z,30.61
2022-08-04T11:20:38.402Z,29.67
2022-08-04T11:23:14.247Z,30.08
2022-08-04T11:26:00.985Z,30.51
2022-08-04T11:29:03.109Z,30.96
2022-08-04T11:31:36.466Z,30.69
2022-08-04T11:34:09.290Z,31.17
2022-08-04T11:37:03.438Z,31.05
2022-08-04T11:39:38.475Z,30.93
2022-08-04T11:42:08.211Z,30.25
2022-08-04T11:44:43.398Z,31.02
2022-08-04T11:47:32.534Z,31.12
2022-08-04T11:50:06.985Z,31.52
2022-08-04T11:52:35.553Z,31.51
2022-08-04T11:55:07.323Z,31.84
2022-08-04T11:57:35.850Z,32.06
2022-08-04T12:00:10.729Z,31.53
2022-08-04T12:03:15.260Z,31.47
2022-08-04T12:05:48.460Z,31.57
2022-08-04T12:08:26.675Z,31.87
2022-08-04T12:11:08.683Z,31.68
2022-08-04T12:13:46.475Z,31.88
2022-08-04T12:16:38.858Z,32.24
2022-08-04T12:19:17.343Z,31.67
2022-08-04T12:21:55.710Z,31.71
2022-08-04T12:24:45.119Z,31.71
2022-08-04T12:27:30.335Z,31.86
2022-08-04T12:31:00.600Z,32.32
2022-08-04T12:33:24.266Z,32.53
2022-08-04T12:36:32.143Z,31.80
2022-08-04T12:39:17.573Z,31.72
2022-08-04T12:42:03.713Z,31.83
2022-08-04T12:44:37.621Z,31.69
2022-08-04T12:47:28.458Z,31.78
2022-08-04T12:50:02.418Z,32.28
2022-08-04T12:53:01.028Z,32.16
2022-08-04T12:55:30.784Z,32.19
2022-08-04T12:57:58.426Z,32.43
2022-08-04T13:00:43.818Z,32.98
2022-08-04T13:03:14.595Z,32.46
2022-08-04T13:05:43.144Z,32.27
2022-08-04T13:08:12.065Z,32.38
2022-08-04T13:10:45.701Z,31.46
2022-08-04T13:13:16.538Z,31.46
2022-08-04T13:15:46.678Z,31.72
2022-08-04T13:18:15.546Z,32.25
2022-08-04T13:20:44.044Z,32.33
2022-08-04T13:23:21.436Z,32.28
2022-08-04T13:26:42.584Z,32.37
2022-08-04T13:28:42.879Z,32.56
2022-08-04T13:31:16.955Z,32.59
2022-08-04T13:33:48.831Z,32.50
2022-08-04T13:36:17.808Z,32.29
2022-08-04T13:38:57.814Z,32.35
2022-08-04T13:41:30.881Z,32.53
2022-08-04T13:44:17.684Z,32.34
2022-08-04T13:46:51.303Z,32.20
2022-08-04T13:49:42.718Z,32.65
2022-08-04T13:52:10.416Z,32.83
2022-08-04T13:54:42.797Z,32.84
2022-08-04T13:57:17.737Z,32.97
2022-08-04T14:00:04.430Z,32.43
2022-08-04T14:02:40.233Z,32.45
2022-08-04T14:05:18.046Z,32.52
2022-08-04T14:07:49.136Z,33.00
2022-08-04T14:10:16.106Z,32.74
2022-08-04T14:12:47.281Z,32.21
2022-08-04T14:16:01.306Z,32.38
2022-08-04T14:18:29.662Z,32.31
2022-08-04T14:21:06.345Z,32.39
2022-08-04T14:23:54.310Z,33.05
2022-08-04T14:26:33.900Z,33.00
2022-08-04T14:29:27.026Z,32.57
2022-08-04T14:32:06.047Z,33.08
2022-08-04T14:34:42.117Z,33.33
2022-08-04T14:37:18.601Z,33.55
2022-08-04T14:40:18.065Z,33.71
2022-08-04T14:42:54.921Z,33.81
2022-08-04T14:45:54.436Z,33.77
2022-08-04T14:48:22.848Z,33.81
2022-08-04T14:50:51.006Z,33.98
2022-08-04T14:53:23.893Z,33.50
2022-08-04T14:55:54.431Z,33.72
2022-08-04T14:58:32.980Z,34.11
2022-08-04T15:01:10.377Z,34.22
2022-08-04T15:03:49.931Z,34.09
2022-08-04T15:06:22.549Z,33.02
2022-08-04T15:08:51.048Z,33.28
2022-08-04T15:11:23.023Z,33.87
2022-08-04T15:13:51.617Z,33.58
2022-08-04T15:16:19.674Z,33.13
2022-08-04T15:18:49.150Z,33.03
2022-08-04T15:21:17.547Z,32.73
2022-08-04T15:23:44.559Z,32.70
2022-08-04T15:26:28.556Z,32.60
2022-08-04T15:29:02.482Z,32.34
2022-08-04T15:32:08.619Z,32.19
2022-08-04T15:34:17.448Z,32.37
2022-08-04T15:36:56.489Z,32.48
2022-08-04T15:39:24.113Z,32.93
2022-08-04T15:42:21.888Z,33.51
2022-08-04T15:44:51.311Z,33.60
2022-08-04T15:47:18.712Z,33.70
2022-08-04T15:49:45.822Z,33.53
2022-08-04T15:52:14.836Z,33.89
2022-08-04T15:54:52.666Z,34.35
2022-08-04T15:57:58.372Z,35.00
2022-08-04T16:00:25.047Z,33.56
2022-08-04T16:02:51.740Z,34.23
2022-08-04T16:05:21.120Z,35.14
2022-08-04T16:07:55.772Z,35.18
2022-08-04T16:10:31.424Z,34.95
2022-08-04T16:13:06.251Z,34.10
2022-08-04T16:15:49.146Z,33.94
2022-08-04T16:18:37.955Z,33.63
2022-08-04T16:21:18.316Z,33.10
2022-08-04T16:23:57.949Z,32.88
2022-08-04T16:26:38.233Z,33.15
2022-08-04T16:29:31.179Z,34.03
2022-08-04T16:32:06.723Z,34.04
2022-08-04T16:34:49.510Z,33.74
2022-08-04T16:37:28.778Z,35.22
2022-08-04T16:40:23.451Z,36.04
2022-08-04T16:42:50.372Z,35.83
2022-08-04T16:45:18.345Z,35.22
2022-08-04T16:47:47.855Z,34.94
2022-08-04T16:50:19.819Z,34.41
2022-08-04T16:52:55.536Z,35.26
2022-08-04T16:55:24.897Z,35.06
2022-08-04T16:57:57.808Z,35.06
2022-08-04T17:00:33.103Z,34.86
2022-08-04T17:03:08.078Z,34.91
2022-08-04T17:05:39.909Z,34.70
2022-08-04T17:10:55.315Z,33.57
2022-08-04T17:14:03.552Z,32.84
2022-08-04T17:16:17.894Z,33.09
2022-08-04T17:18:48.395Z,33.23
2022-08-04T17:21:28.144Z,32.99
2022-08-04T17:24:14.437Z,32.38
2022-08-04T17:26:53.650Z,32.98
2022-08-04T17:29:42.253Z,33.12
2022-08-04T17:32:17.636Z,32.66
2022-08-04T17:34:51.873Z,32.18
2022-08-04T17:37:37.956Z,31.86
2022-08-04T17:40:10.061Z,31.58
2022-08-04T17:42:37.329Z,31.52
2022-08-04T17:45:41.433Z,31.34
2022-08-04T17:47:55.803Z,31.21
2022-08-04T17:50:27.710Z,30.96
2022-08-04T17:53:12.030Z,30.86
2022-08-04T17:55:44.319Z,30.71
2022-08-04T17:58:22.264Z,30.59
2022-08-04T18:01:22.714Z,30.42
2022-08-04T18:03:52.723Z,30.21
2022-08-04T18:06:22.366Z,30.13
2022-08-04T18:08:57.558Z,30.00
2022-08-04T18:11:28.700Z,29.90
2022-08-04T18:13:57.131Z,29.66
2022-08-04T18:16:24.627Z,29.50
2022-08-04T18:19:15.424Z,29.24
2022-08-04T18:21:46.990Z,28.98
2022-08-04T18:24:35.950Z,28.93
2022-08-04T18:27:23.316Z,28.81
2022-08-04T18:30:38.533Z,28.58
2022-08-04T18:32:51.266Z,28.37
2022-08-04T18:35:24.833Z,28.27
2022-08-04T18:38:22.676Z,28.13
2022-08-04T18:40:53.480Z,28.02
2022-08-04T18:43:28.748Z,27.89
2022-08-04T18:46:00.633Z,27.79
2022-08-04T18:48:36.043Z,27.72
2022-08-04T18:51:22.695Z,27.67
2022-08-04T18:53:57.966Z,27.53
2022-08-04T18:56:31.689Z,27.51
2022-08-04T18:59:05.141Z,27.46
2022-08-04T19:02:12.757Z,27.36
2022-08-04T19:04:33.887Z,27.32
2022-08-04T19:07:23.434Z,27.28
2022-08-04T19:09:57.349Z,27.17
2022-08-04T19:12:27.302Z,27.22
2022-08-04T19:14:58.077Z,27.25
2022-08-04T19:17:53.674Z,27.33
2022-08-04T19:20:23.321Z,27.33
2022-08-04T19:24:10.895Z,27.26
2022-08-04T19:25:59.018Z,27.25
2022-08-04T19:28:28.026Z,27.05
2022-08-04T19:30:57.884Z,26.83
2022-08-04T19:33:25.297Z,26.87
2022-08-04T19:35:52.821Z,26.96
2022-08-04T19:38:19.485Z,26.73
2022-08-04T19:40:52.661Z,26.52
2022-08-04T19:43:19.712Z,26.44
2022-08-04T19:45:46.890Z,26.42
2022-08-04T19:48:18.952Z,26.32
2022-08-04T19:50:47.015Z,26.53
2022-08-04T19:53:19.394Z,26.67
2022-08-04T19:55:49.456Z,26.61
2022-08-04T19:58:16.270Z,26.61
2022-08-04T20:00:44.691Z,26.56
2022-08-04T20:03:20.396Z,26.52
2022-08-04T20:05:53.219Z,26.38
2022-08-04T20:08:28.664Z,26.29
2022-08-04T20:10:55.993Z,26.15
2022-08-04T20:13:25.479Z,26.02
2022-08-04T20:15:58.433Z,25.95
2022-08-04T20:18:35.777Z,25.79
2022-08-04T20:21:19.692Z,25.81
2022-08-04T20:23:52.549Z,25.68
2022-08-04T20:26:20.161Z,25.55
2022-08-04T20:28:51.873Z,25.54
2022-08-04T20:31:19.545Z,25.59
2022-08-04T20:33:49.349Z,25.63
2022-08-04T20:36:20.975Z,25.68
2022-08-04T20:38:51.998Z,25.66
2022-08-04T20:41:20.709Z,25.50
2022-08-04T20:43:49.645Z,25.54
2022-08-04T20:46:18.667Z,25.45
2022-08-04T20:48:55.466Z,25.42
2022-08-04T20:51:25.915Z,25.30
2022-08-04T20:53:59.317Z,25.28
2022-08-04T20:56:30.681Z,25.18
2022-08-04T20:58:59.143Z,25.14
2022-08-04T21:01:29.671Z,25.15
2022-08-04T21:03:59.822Z,25.15
2022-08-04T21:06:27.852Z,25.09
2022-08-04T21:08:56.715Z,25.05
2022-08-04T21:11:24.328Z,24.84
2022-08-04T21:13:59.924Z,24.94
2022-08-04T21:16:55.862Z,24.86
2022-08-04T21:19:13.900Z,24.83
2022-08-04T21:21:42.375Z,24.68
2022-08-04T21:24:09.942Z,24.71
2022-08-04T21:26:40.275Z,24.60
2022-08-04T21:29:10.351Z,24.56
2022-08-04T21:31:36.977Z,24.51
2022-08-04T21:34:39.289Z,24.38
2022-08-04T21:37:04.553Z,24.38
2022-08-04T21:39:32.624Z,24.49
2022-08-04T21:42:38.026Z,24.41
2022-08-04T21:44:46.091Z,24.26
2022-08-04T21:47:23.201Z,24.38
2022-08-04T21:49:59.346Z,24.43
2022-08-04T21:52:29.188Z,24.31
2022-08-04T21:54:55.801Z,24.26
2022-08-04T21:57:25.183Z,24.27
2022-08-04T21:59:52.601Z,24.21
2022-08-04T22:02:19.614Z,24.19
2022-08-04T22:04:46.539Z,24.17
2022-08-04T22:07:16.387Z,24.17
2022-08-04T22:10:02.516Z,24.09
2022-08-04T22:12:30.687Z,24.00
2022-08-04T22:15:00.623Z,23.99
2022-08-04T22:17:35.124Z,23.95
2022-08-04T22:20:03.956Z,23.86
2022-08-04T22:22:34.152Z,23.71
2022-08-04T22:25:12.378Z,23.68
2022-08-04T22:27:40.020Z,23.70
2022-08-04T22:30:17.477Z,23.64
2022-08-04T22:32:48.305Z,23.72
2022-08-04T22:35:35.907Z,23.70
2022-08-04T22:38:20.599Z,23.55
2022-08-04T22:41:13.997Z,23.73
2022-08-04T22:43:41.666Z,23.77
2022-08-04T22:46:12.987Z,23.63
2022-08-04T22:48:43.278Z,23.65
2022-08-04T22:51:10.509Z,23.53
2022-08-04T22:53:39.838Z,23.51
2022-08-04T22:56:10.468Z,23.50
2022-08-04T22:58:45.376Z,23.44
2022-08-04T23:01:14.952Z,23.46
2022-08-04T23:03:50.925Z,23.44
2022-08-04T23:06:24.649Z,23.32
2022-08-04T23:08:52.413Z,23.28
2022-08-04T23:11:19.192Z,23.21
2022-08-04T23:13:46.140Z,23.19
2022-08-04T23:16:15.625Z,23.23
2022-08-04T23:18:45.347Z,23.23
2022-08-04T23:21:15.071Z,23.25
2022-08-04T23:23:45.178Z,23.21
2022-08-04T23:26:15.700Z,23.10
2022-08-04T23:28:43.217Z,23.07
2022-08-04T23:31:10.154Z,23.06
2022-08-04T23:33:49.368Z,23.08
2022-08-04T23:36:29.351Z,23.17
2022-08-04T23:39:04.199Z,23.07
2022-08-04T23:41:54.790Z,23.07
2022-08-04T23:44:25.248Z,22.96
2022-08-04T23:47:03.564Z,22.80
2022-08-04T23:49:44.288Z,22.81
2022-08-04T23:52:28.222Z,22.74
2022-08-04T23:55:00.113Z,22.65
2022-08-04T23:57:31.041Z,22.68
